sensor_id;sensor_type;location;lat;lon;timestamp;pressure;altitude;pressure_sealevel;temperature;humidity
48563;BME280;34981;49.104;11.396;2023-04-02T00:02:28;98867.66;;;6.15;100.00
48563;BME280;34981;49.104;11.396;2023-04-02T00:07:42;98864.16;;;6.14;100.00
48563;BME280;34981;49.104;11.396;2023-04-02T00:10:26;98877.50;;;6.14;100.00
48563;BME280;34981;49.104;11.396;2023-04-02T00:13:38;98872.16;;;6.14;100.00
48563;BME280;34981;49.104;11.396;2023-04-02T00:15:45;98869.03;;;6.11;100.00
48563;BME280;34981;49.104;11.396;2023-04-02T00:18:14;98884.22;;;6.10;100.00
48563;BME280;34981;49.104;11.396;2023-04-02T00:20:43;98885.22;;;6.09;100.00
48563;BME280;34981;49.104;11.396;2023-04-02T00:23:12;98883.06;;;6.05;100.00
48563;BME280;34981;49.104;11.396;2023-04-02T00:25:42;98886.88;;;6.02;100.00
48563;BME280;34981;49.104;11.396;2023-04-02T00:28:12;98884.72;;;6.06;100.00
48563;BME280;34981;49.104;11.396;2023-04-02T00:30:50;98882.38;;;6.03;100.00
48563;BME280;34981;49.104;11.396;2023-04-02T00:33:19;98880.03;;;6.00;100.00
48563;BME280;34981;49.104;11.396;2023-04-02T00:35:47;98891.56;;;6.00;100.00
48563;BME280;34981;49.104;11.396;2023-04-02T00:38:18;98891.06;;;5.97;100.00
48563;BME280;34981;49.104;11.396;2023-04-02T00:40:46;98893.91;;;5.95;100.00
48563;BME280;34981;49.104;11.396;2023-04-02T00:43:13;98896.25;;;5.98;100.00
48563;BME280;34981;49.104;11.396;2023-04-02T00:45:42;98898.72;;;6.00;100.00
48563;BME280;34981;49.104;11.396;2023-04-02T00:48:23;98898.09;;;5.98;100.00
48563;BME280;34981;49.104;11.396;2023-04-02T00:50:51;98900.56;;;5.99;100.00
48563;BME280;34981;49.104;11.396;2023-04-02T00:53:24;98894.91;;;5.94;100.00
48563;BME280;34981;49.104;11.396;2023-04-02T00:55:53;98906.41;;;5.95;100.00
48563;BME280;34981;49.104;11.396;2023-04-02T00:58:24;98907.41;;;5.94;100.00
48563;BME280;34981;49.104;11.396;2023-04-02T01:00:52;98909.25;;;5.93;100.00
48563;BME280;34981;49.104;11.396;2023-04-02T01:05:50;98905.94;;;5.91;100.00
48563;BME280;34981;49.104;11.396;2023-04-02T01:13:51;98908.25;;;5.94;100.00
48563;BME280;34981;49.104;11.396;2023-04-02T01:16:31;98914.59;;;5.93;100.00
48563;BME280;34981;49.104;11.396;2023-04-02T01:19:30;98916.94;;;5.96;100.00
48563;BME280;34981;49.104;11.396;2023-04-02T01:21:56;98905.09;;;5.91;100.00
48563;BME280;34981;49.104;11.396;2023-04-02T01:24:31;98921.59;;;5.94;100.00
48563;BME280;34981;49.104;11.396;2023-04-02T01:27:00;98919.94;;;5.93;100.00
48563;BME280;34981;49.104;11.396;2023-04-02T01:31:57;98918.91;;;5.86;100.00
48563;BME280;34981;49.104;11.396;2023-04-02T01:34:26;98917.59;;;5.82;100.00
48563;BME280;34981;49.104;11.396;2023-04-02T01:44:38;98932.78;;;5.90;100.00
48563;BME280;34981;49.104;11.396;2023-04-02T01:47:09;98924.41;;;5.84;100.00
48563;BME280;34981;49.104;11.396;2023-04-02T01:49:37;98933.25;;;5.85;100.00
48563;BME280;34981;49.104;11.396;2023-04-02T01:52:06;98936.31;;;5.90;100.00
48563;BME280;34981;49.104;11.396;2023-04-02T01:54:38;98946.16;;;5.90;100.00
48563;BME280;34981;49.104;11.396;2023-04-02T01:57:07;98931.59;;;5.84;100.00
48563;BME280;34981;49.104;11.396;2023-04-02T01:59:34;98940.41;;;5.84;100.00
48563;BME280;34981;49.104;11.396;2023-04-02T02:02:09;98942.28;;;5.84;100.00
48563;BME280;34981;49.104;11.396;2023-04-02T02:04:39;98947.97;;;5.89;100.00
48563;BME280;34981;49.104;11.396;2023-04-02T02:07:10;98946.44;;;5.86;100.00
48563;BME280;34981;49.104;11.396;2023-04-02T02:09:42;98951.47;;;5.90;100.00
48563;BME280;34981;49.104;11.396;2023-04-02T02:12:13;98955.00;;;5.90;100.00
48563;BME280;34981;49.104;11.396;2023-04-02T02:14:49;98960.34;;;5.90;100.00
48563;BME280;34981;49.104;11.396;2023-04-02T02:17:24;98944.47;;;5.89;100.00
48563;BME280;34981;49.104;11.396;2023-04-02T02:19:54;98962.31;;;5.88;100.00
48563;BME280;34981;49.104;11.396;2023-04-02T02:22:29;98965.13;;;5.86;100.00
48563;BME280;34981;49.104;11.396;2023-04-02T02:24:58;98956.28;;;5.86;100.00
48563;BME280;34981;49.104;11.396;2023-04-02T02:32:38;98968.97;;;5.84;100.00
48563;BME280;34981;49.104;11.396;2023-04-02T02:35:10;98970.81;;;5.83;100.00
48563;BME280;34981;49.104;11.396;2023-04-02T02:37:39;98969.78;;;5.84;100.00
48563;BME280;34981;49.104;11.396;2023-04-02T02:40:11;98969.78;;;5.84;100.00
48563;BME280;34981;49.104;11.396;2023-04-02T02:42:43;98973.97;;;5.87;100.00
48563;BME280;34981;49.104;11.396;2023-04-02T02:45:15;98973.63;;;5.82;100.00
48563;BME280;34981;49.104;11.396;2023-04-02T02:47:44;98976.47;;;5.80;100.00
48563;BME280;34981;49.104;11.396;2023-04-02T02:50:18;98978.31;;;5.80;100.00
48563;BME280;34981;49.104;11.396;2023-04-02T02:52:49;98986.31;;;5.80;100.00
48563;BME280;34981;49.104;11.396;2023-04-02T02:55:20;98980.81;;;5.81;100.00
48563;BME280;34981;49.104;11.396;2023-04-02T02:58:02;98979.97;;;5.81;100.00
48563;BME280;34981;49.104;11.396;2023-04-02T03:00:36;98978.31;;;5.80;100.00
48563;BME280;34981;49.104;11.396;2023-04-02T03:03:06;98993.47;;;5.79;100.00
48563;BME280;34981;49.104;11.396;2023-04-02T03:05:35;98990.81;;;5.79;100.00
48563;BME280;34981;49.104;11.396;2023-04-02T03:08:12;98989.97;;;5.79;100.00
48563;BME280;34981;49.104;11.396;2023-04-02T03:10:43;98993.00;;;5.76;100.00
48563;BME280;34981;49.104;11.396;2023-04-02T03:13:22;99000.00;;;5.77;100.00
48563;BME280;34981;49.104;11.396;2023-04-02T03:23:41;99000.00;;;5.77;100.00
48563;BME280;34981;49.104;11.396;2023-04-02T03:26:12;99005.66;;;5.74;100.00
48563;BME280;34981;49.104;11.396;2023-04-02T03:28:45;99010.31;;;5.72;100.00
48563;BME280;34981;49.104;11.396;2023-04-02T03:31:15;99019.31;;;5.71;100.00
48563;BME280;34981;49.104;11.396;2023-04-02T03:33:47;99014.97;;;5.70;100.00
48563;BME280;34981;49.104;11.396;2023-04-02T03:39:19;99005.66;;;5.74;100.00
48563;BME280;34981;49.104;11.396;2023-04-02T03:41:51;99026.34;;;5.72;100.00
48563;BME280;34981;49.104;11.396;2023-04-02T03:44:26;99018.31;;;5.72;100.00
48563;BME280;34981;49.104;11.396;2023-04-02T03:47:03;99019.16;;;5.72;100.00
48563;BME280;34981;49.104;11.396;2023-04-02T03:49:33;99026.00;;;5.75;100.00
48563;BME280;34981;49.104;11.396;2023-04-02T03:52:09;99031.50;;;5.73;100.00
48563;BME280;34981;49.104;11.396;2023-04-02T03:54:39;99023.16;;;5.68;100.00
48563;BME280;34981;49.104;11.396;2023-04-02T04:00:07;99034.69;;;5.77;100.00
48563;BME280;34981;49.104;11.396;2023-04-02T04:05:25;99045.34;;;5.69;100.00
48563;BME280;34981;49.104;11.396;2023-04-02T04:07:58;99044.34;;;5.70;100.00
48563;BME280;34981;49.104;11.396;2023-04-02T04:10:26;99064.38;;;5.74;100.00
48563;BME280;34981;49.104;11.396;2023-04-02T04:12:54;99061.56;;;5.75;100.00
48563;BME280;34981;49.104;11.396;2023-04-02T04:15:25;99054.34;;;5.68;100.00
48563;BME280;34981;49.104;11.396;2023-04-02T04:20:30;99059.69;;;5.68;100.00
48563;BME280;34981;49.104;11.396;2023-04-02T04:23:07;99062.88;;;5.71;100.00
48563;BME280;34981;49.104;11.396;2023-04-02T04:25:35;99064.88;;;5.69;100.00
48563;BME280;34981;49.104;11.396;2023-04-02T04:33:20;99064.50;;;5.64;100.00
48563;BME280;34981;49.104;11.396;2023-04-02T04:35:56;99067.03;;;5.66;100.00
48563;BME280;34981;49.104;11.396;2023-04-02T04:40:56;99073.69;;;5.70;100.00
48563;BME280;34981;49.104;11.396;2023-04-02T04:43:32;99077.53;;;5.67;100.00
48563;BME280;34981;49.104;11.396;2023-04-02T04:46:44;99084.38;;;5.70;100.00
48563;BME280;34981;49.104;11.396;2023-04-02T04:49:00;99067.19;;;5.64;100.00
48563;BME280;34981;49.104;11.396;2023-04-02T04:51:40;99087.53;;;5.65;100.00
48563;BME280;34981;49.104;11.396;2023-04-02T04:54:12;99083.34;;;5.63;100.00
48563;BME280;34981;49.104;11.396;2023-04-02T04:56:46;99087.53;;;5.65;100.00
48563;BME280;34981;49.104;11.396;2023-04-02T04:59:17;99093.03;;;5.64;100.00
48563;BME280;34981;49.104;11.396;2023-04-02T05:04:25;99093.72;;;5.66;100.00
48563;BME280;34981;49.104;11.396;2023-04-02T05:06:56;99095.03;;;5.62;100.00
48563;BME280;34981;49.104;11.396;2023-04-02T05:09:39;99104.38;;;5.66;100.00
48563;BME280;34981;49.104;11.396;2023-04-02T05:12:16;99093.03;;;5.64;100.00
48563;BME280;34981;49.104;11.396;2023-04-02T05:17:18;99115.91;;;5.66;100.00
48563;BME280;34981;49.104;11.396;2023-04-02T05:19:50;99118.25;;;5.69;100.00
48563;BME280;34981;49.104;11.396;2023-04-02T05:25:00;99120.09;;;5.69;100.00
48563;BME280;34981;49.104;11.396;2023-04-02T05:27:50;99119.06;;;5.70;100.00
48563;BME280;34981;49.104;11.396;2023-04-02T05:32:49;99122.06;;;5.67;100.00
48563;BME280;34981;49.104;11.396;2023-04-02T05:35:21;99125.59;;;5.67;100.00
48563;BME280;34981;49.104;11.396;2023-04-02T05:37:51;99127.72;;;5.64;100.00
48563;BME280;34981;49.104;11.396;2023-04-02T05:40:25;99135.72;;;5.64;100.00
48563;BME280;34981;49.104;11.396;2023-04-02T05:42:54;99123.91;;;5.66;100.00
48563;BME280;34981;49.104;11.396;2023-04-02T05:45:30;99138.09;;;5.67;100.00
48563;BME280;34981;49.104;11.396;2023-04-02T05:48:03;99129.75;;;5.70;100.00
48563;BME280;34981;49.104;11.396;2023-04-02T05:50:40;99139.28;;;5.72;100.00
48563;BME280;34981;49.104;11.396;2023-04-02T05:53:32;99137.59;;;5.71;100.00
48563;BME280;34981;49.104;11.396;2023-04-02T05:58:38;99141.09;;;5.72;100.00
48563;BME280;34981;49.104;11.396;2023-04-02T06:01:20;99140.63;;;5.76;100.00
48563;BME280;34981;49.104;11.396;2023-04-02T06:04:02;99151.47;;;5.75;100.00
48563;BME280;34981;49.104;11.396;2023-04-02T06:09:42;99138.81;;;5.77;100.00
48563;BME280;34981;49.104;11.396;2023-04-02T06:12:34;99143.31;;;5.76;100.00
48563;BME280;34981;49.104;11.396;2023-04-02T06:15:07;99139.47;;;5.79;100.00
48563;BME280;34981;49.104;11.396;2023-04-02T06:17:43;99160.81;;;5.79;100.00
48563;BME280;34981;49.104;11.396;2023-04-02T06:20:16;99153.66;;;5.79;100.00
48563;BME280;34981;49.104;11.396;2023-04-02T06:22:48;99160.66;;;5.80;100.00
48563;BME280;34981;49.104;11.396;2023-04-02T06:25:23;99165.16;;;5.80;100.00
48563;BME280;34981;49.104;11.396;2023-04-02T06:27:53;99165.84;;;5.82;100.00
48563;BME280;34981;49.104;11.396;2023-04-02T06:30:24;99172.88;;;5.83;100.00
48563;BME280;34981;49.104;11.396;2023-04-02T06:32:55;99186.72;;;5.86;100.00
48563;BME280;34981;49.104;11.396;2023-04-02T06:35:23;99178.84;;;5.85;100.00
48563;BME280;34981;49.104;11.396;2023-04-02T06:37:57;99181.25;;;5.88;100.00
48563;BME280;34981;49.104;11.396;2023-04-02T06:40:43;99181.94;;;5.90;100.00
48563;BME280;34981;49.104;11.396;2023-04-02T06:46:07;99177.59;;;5.89;100.00
48563;BME280;34981;49.104;11.396;2023-04-02T06:48:55;99180.94;;;5.91;100.00
48563;BME280;34981;49.104;11.396;2023-04-02T06:51:25;99188.13;;;5.91;100.00
48563;BME280;34981;49.104;11.396;2023-04-02T06:53:54;99191.78;;;5.90;100.00
48563;BME280;34981;49.104;11.396;2023-04-02T06:56:41;99206.63;;;5.92;100.00
48563;BME280;34981;49.104;11.396;2023-04-02T06:59:12;99197.31;;;5.96;100.00
48563;BME280;34981;49.104;11.396;2023-04-02T07:01:46;99206.00;;;5.98;100.00
48563;BME280;34981;49.104;11.396;2023-04-02T07:04:15;99202.16;;;6.01;100.00
48563;BME280;34981;49.104;11.396;2023-04-02T07:06:44;99203.81;;;6.02;100.00
48563;BME280;34981;49.104;11.396;2023-04-02T07:09:13;99210.69;;;6.04;100.00
48563;BME280;34981;49.104;11.396;2023-04-02T07:11:45;99216.53;;;6.08;100.00
48563;BME280;34981;49.104;11.396;2023-04-02T07:14:12;99212.03;;;6.08;100.00
48563;BME280;34981;49.104;11.396;2023-04-02T07:16:40;99218.22;;;6.09;100.00
48563;BME280;34981;49.104;11.396;2023-04-02T07:19:20;99221.22;;;6.14;100.00
48563;BME280;34981;49.104;11.396;2023-04-02T07:21:50;99211.72;;;6.11;100.00
48563;BME280;34981;49.104;11.396;2023-04-02T07:24:19;99222.25;;;6.13;100.00
48563;BME280;34981;49.104;11.396;2023-04-02T07:26:47;99227.59;;;6.13;100.00
48563;BME280;34981;49.104;11.396;2023-04-02T07:29:14;99226.41;;;6.15;100.00
48563;BME280;34981;49.104;11.396;2023-04-02T07:31:42;99227.94;;;6.18;100.00
48563;BME280;34981;49.104;11.396;2023-04-02T07:34:09;99235.25;;;6.16;100.00
48563;BME280;34981;49.104;11.396;2023-04-02T07:36:37;99226.09;;;6.18;100.00
48563;BME280;34981;49.104;11.396;2023-04-02T07:39:04;99229.94;;;6.24;100.00
48563;BME280;34981;49.104;11.396;2023-04-02T07:41:31;99230.63;;;6.26;100.00
48563;BME280;34981;49.104;11.396;2023-04-02T07:43:58;99226.97;;;6.27;100.00
48563;BME280;34981;49.104;11.396;2023-04-02T07:46:25;99232.50;;;6.34;100.00
48563;BME280;34981;49.104;11.396;2023-04-02T07:48:52;99242.69;;;6.38;100.00
48563;BME280;34981;49.104;11.396;2023-04-02T07:51:21;99237.19;;;6.40;100.00
48563;BME280;34981;49.104;11.396;2023-04-02T07:53:48;99243.88;;;6.44;100.00
48563;BME280;34981;49.104;11.396;2023-04-02T07:56:17;99252.25;;;6.49;100.00
48563;BME280;34981;49.104;11.396;2023-04-02T07:58:45;99256.59;;;6.50;100.00
48563;BME280;34981;49.104;11.396;2023-04-02T08:01:17;99264.13;;;6.54;100.00
48563;BME280;34981;49.104;11.396;2023-04-02T08:03:44;99261.94;;;6.58;100.00
48563;BME280;34981;49.104;11.396;2023-04-02T08:06:12;99275.00;;;6.61;100.00
48563;BME280;34981;49.104;11.396;2023-04-02T08:08:39;99278.69;;;6.68;100.00
48563;BME280;34981;49.104;11.396;2023-04-02T08:11:07;99278.84;;;6.67;100.00
48563;BME280;34981;49.104;11.396;2023-04-02T08:13:34;99293.03;;;6.67;100.00
48563;BME280;34981;49.104;11.396;2023-04-02T08:16:02;99292.06;;;6.68;100.00
48563;BME280;34981;49.104;11.396;2023-04-02T08:18:29;99284.03;;;6.68;100.00
48563;BME280;34981;49.104;11.396;2023-04-02T08:20:56;99290.38;;;6.67;100.00
48563;BME280;34981;49.104;11.396;2023-04-02T08:23:24;99290.38;;;6.67;100.00
48563;BME280;34981;49.104;11.396;2023-04-02T08:25:52;99292.72;;;6.70;100.00
48563;BME280;34981;49.104;11.396;2023-04-02T08:28:20;99304.06;;;6.72;100.00
48563;BME280;34981;49.104;11.396;2023-04-02T08:30:47;99301.09;;;6.75;100.00
48563;BME280;34981;49.104;11.396;2023-04-02T08:33:18;99297.41;;;6.76;100.00
48563;BME280;34981;49.104;11.396;2023-04-02T08:35:46;99308.81;;;6.78;100.00
48563;BME280;34981;49.104;11.396;2023-04-02T08:38:14;99309.13;;;6.83;100.00
48563;BME280;34981;49.104;11.396;2023-04-02T08:40:46;99323.84;;;6.87;100.00
48563;BME280;34981;49.104;11.396;2023-04-02T08:48:31;99319.88;;;6.99;100.00
48563;BME280;34981;49.104;11.396;2023-04-02T08:50:59;99332.91;;;7.02;100.00
48563;BME280;34981;49.104;11.396;2023-04-02T08:53:28;99341.94;;;7.10;100.00
48563;BME280;34981;49.104;11.396;2023-04-02T08:56:14;99345.28;;;7.12;100.00
48563;BME280;34981;49.104;11.396;2023-04-02T09:01:17;99360.53;;;7.19;100.00
48563;BME280;34981;49.104;11.396;2023-04-02T09:03:48;99359.53;;;7.20;100.00
48563;BME280;34981;49.104;11.396;2023-04-02T09:06:17;99365.06;;;7.27;100.00
48563;BME280;34981;49.104;11.396;2023-04-02T09:08:45;99371.09;;;7.29;100.00
48563;BME280;34981;49.104;11.396;2023-04-02T09:13:48;99379.28;;;7.35;100.00
48563;BME280;34981;49.104;11.396;2023-04-02T09:16:17;99370.09;;;7.30;100.00
48563;BME280;34981;49.104;11.396;2023-04-02T09:18:49;99373.09;;;7.35;100.00
48563;BME280;34981;49.104;11.396;2023-04-02T09:23:49;99383.13;;;7.41;100.00
48563;BME280;34981;49.104;11.396;2023-04-02T09:28:46;99391.69;;;7.45;100.00
48563;BME280;34981;49.104;11.396;2023-04-02T09:31:18;99403.88;;;7.47;100.00
48563;BME280;34981;49.104;11.396;2023-04-02T09:33:50;99401.88;;;7.49;100.00
48563;BME280;34981;49.104;11.396;2023-04-02T09:39:17;99395.38;;;7.52;100.00
48563;BME280;34981;49.104;11.396;2023-04-02T09:41:45;99409.25;;;7.55;100.00
48563;BME280;34981;49.104;11.396;2023-04-02T09:44:31;99401.91;;;7.57;100.00
48563;BME280;34981;49.104;11.396;2023-04-02T09:47:05;99421.13;;;7.61;100.00
48563;BME280;34981;49.104;11.396;2023-04-02T09:49:34;99427.69;;;7.66;100.00
48563;BME280;34981;49.104;11.396;2023-04-02T09:52:05;99436.38;;;7.68;100.00
48563;BME280;34981;49.104;11.396;2023-04-02T09:54:33;99437.03;;;7.70;100.00
48563;BME280;34981;49.104;11.396;2023-04-02T09:57:20;99427.84;;;7.65;100.00
48563;BME280;34981;49.104;11.396;2023-04-02T10:00:06;99439.56;;;7.72;100.00
48563;BME280;34981;49.104;11.396;2023-04-02T10:02:45;99434.06;;;7.73;100.00
48563;BME280;34981;49.104;11.396;2023-04-02T10:05:20;99441.91;;;7.67;100.00
48563;BME280;34981;49.104;11.396;2023-04-02T10:08:06;99433.69;;;7.68;100.00
48563;BME280;34981;49.104;11.396;2023-04-02T10:13:13;99443.75;;;7.66;100.00
48563;BME280;34981;49.104;11.396;2023-04-02T10:18:20;99456.47;;;7.72;100.00
48563;BME280;34981;49.104;11.396;2023-04-02T10:20:49;99450.59;;;7.69;100.00
48563;BME280;34981;49.104;11.396;2023-04-02T10:23:17;99447.91;;;7.61;100.00
48563;BME280;34981;49.104;11.396;2023-04-02T10:25:51;99445.72;;;7.56;100.00
48563;BME280;34981;49.104;11.396;2023-04-02T10:28:29;99451.09;;;7.56;100.00
48563;BME280;34981;49.104;11.396;2023-04-02T10:31:07;99449.91;;;7.51;100.00
48563;BME280;34981;49.104;11.396;2023-04-02T10:33:36;99455.13;;;7.52;100.00
48563;BME280;34981;49.104;11.396;2023-04-02T10:36:19;99466.97;;;7.50;100.00
48563;BME280;34981;49.104;11.396;2023-04-02T10:38:57;99432.47;;;7.22;100.00
48563;BME280;34981;49.104;11.396;2023-04-02T10:41:30;99447.31;;;7.17;100.00
48563;BME280;34981;49.104;11.396;2023-04-02T10:49:31;99466.06;;;7.25;100.00
48563;BME280;34981;49.104;11.396;2023-04-02T10:52:08;99467.78;;;7.42;100.00
48563;BME280;34981;49.104;11.396;2023-04-02T10:54:44;99472.63;;;7.38;100.00
48563;BME280;34981;49.104;11.396;2023-04-02T10:59:41;99480.50;;;7.40;100.00
48563;BME280;34981;49.104;11.396;2023-04-02T11:02:57;99486.19;;;7.37;100.00
48563;BME280;34981;49.104;11.396;2023-04-02T11:05:00;99472.81;;;7.37;100.00
48563;BME280;34981;49.104;11.396;2023-04-02T11:07:29;99487.19;;;7.36;100.00
48563;BME280;34981;49.104;11.396;2023-04-02T11:09:58;99485.81;;;7.32;100.00
48563;BME280;34981;49.104;11.396;2023-04-02T11:15:01;99488.13;;;7.19;100.00
48563;BME280;34981;49.104;11.396;2023-04-02T11:17:28;99494.16;;;7.21;100.00
48563;BME280;34981;49.104;11.396;2023-04-02T11:20:02;99483.56;;;7.11;100.00
48563;BME280;34981;49.104;11.396;2023-04-02T11:22:42;99471.34;;;7.00;100.00
48563;BME280;34981;49.104;11.396;2023-04-02T11:25:19;99479.44;;;6.83;100.00
48563;BME280;34981;49.104;11.396;2023-04-02T11:27:47;99481.47;;;6.89;100.00
48563;BME280;34981;49.104;11.396;2023-04-02T11:32:43;99489.16;;;6.84;100.00
48563;BME280;34981;49.104;11.396;2023-04-02T11:35:23;99492.66;;;6.84;100.00
48563;BME280;34981;49.104;11.396;2023-04-02T11:37:54;99481.44;;;6.81;100.00
48563;BME280;34981;49.104;11.396;2023-04-02T11:43:58;99494.38;;;6.93;100.00
48563;BME280;34981;49.104;11.396;2023-04-02T11:45:55;99499.69;;;6.85;100.00
48563;BME280;34981;49.104;11.396;2023-04-02T11:50:53;99526.72;;;6.82;100.00
48563;BME280;34981;49.104;11.396;2023-04-02T11:53:21;99527.78;;;6.89;100.00
48563;BME280;34981;49.104;11.396;2023-04-02T12:06:18;99524.34;;;6.71;100.00
48563;BME280;34981;49.104;11.396;2023-04-02T12:09:15;99528.66;;;6.72;100.00
48563;BME280;34981;49.104;11.396;2023-04-02T12:11:40;99527.22;;;6.78;100.00
48563;BME280;34981;49.104;11.396;2023-04-02T12:14:28;99536.38;;;6.75;100.00
48563;BME280;34981;49.104;11.396;2023-04-02T12:16:57;99523.50;;;6.71;100.00
48563;BME280;34981;49.104;11.396;2023-04-02T12:19:24;99543.72;;;6.73;100.00
48563;BME280;34981;49.104;11.396;2023-04-02T12:21:52;99553.06;;;6.69;100.00
48563;BME280;34981;49.104;11.396;2023-04-02T12:24:20;99542.16;;;6.62;100.00
48563;BME280;34981;49.104;11.396;2023-04-02T12:26:48;99539.28;;;6.56;100.00
48563;BME280;34981;49.104;11.396;2023-04-02T12:29:32;99532.41;;;6.53;100.00
48563;BME280;34981;49.104;11.396;2023-04-02T12:31:59;99549.56;;;6.51;100.00
48563;BME280;34981;49.104;11.396;2023-04-02T12:34:27;99548.31;;;6.37;100.00
48563;BME280;34981;49.104;11.396;2023-04-02T12:37:02;99550.34;;;6.43;100.00
48563;BME280;34981;49.104;11.396;2023-04-02T12:39:31;99549.00;;;6.39;100.00
48563;BME280;34981;49.104;11.396;2023-04-02T12:41:59;99558.06;;;6.46;100.00
48563;BME280;34981;49.104;11.396;2023-04-02T12:44:27;99563.19;;;6.40;100.00
48563;BME280;34981;49.104;11.396;2023-04-02T12:46:54;99566.88;;;6.39;100.00
48563;BME280;34981;49.104;11.396;2023-04-02T12:49:28;99564.44;;;6.28;100.00
48563;BME280;34981;49.104;11.396;2023-04-02T12:51:57;99561.59;;;6.29;100.00
48563;BME280;34981;49.104;11.396;2023-04-02T12:54:24;99570.78;;;6.27;100.00
48563;BME280;34981;49.104;11.396;2023-04-02T12:56:51;99572.91;;;6.23;100.00
48563;BME280;34981;49.104;11.396;2023-04-02T12:59:29;99584.88;;;6.37;100.00
48563;BME280;34981;49.104;11.396;2023-04-02T13:01:58;99583.59;;;6.41;100.00
48563;BME280;34981;49.104;11.396;2023-04-02T13:04:26;99590.91;;;6.39;100.00
48563;BME280;34981;49.104;11.396;2023-04-02T13:06:53;99589.38;;;6.36;100.00
48563;BME280;34981;49.104;11.396;2023-04-02T13:09:26;99592.06;;;6.36;100.00
48563;BME280;34981;49.104;11.396;2023-04-02T13:11:54;99580.84;;;6.33;100.00
48563;BME280;34981;49.104;11.396;2023-04-02T13:14:21;99589.69;;;6.33;100.00
48563;BME280;34981;49.104;11.396;2023-04-02T13:16:50;99587.72;;;6.35;100.00
48563;BME280;34981;49.104;11.396;2023-04-02T13:19:35;99601.75;;;6.37;100.00
48563;BME280;34981;49.104;11.396;2023-04-02T13:22:02;99600.22;;;6.52;100.00
48563;BME280;34981;49.104;11.396;2023-04-02T13:24:30;99606.19;;;6.46;100.00
48563;BME280;34981;49.104;11.396;2023-04-02T13:26:59;99623.66;;;6.58;100.00
48563;BME280;34981;49.104;11.396;2023-04-02T13:31:59;99624.88;;;6.46;100.00
48563;BME280;34981;49.104;11.396;2023-04-02T13:34:27;99625.13;;;6.53;100.00
48563;BME280;34981;49.104;11.396;2023-04-02T13:36:54;99616.66;;;6.40;100.00
48563;BME280;34981;49.104;11.396;2023-04-02T13:39:21;99630.94;;;6.48;100.00
48563;BME280;34981;49.104;11.396;2023-04-02T13:41:50;99626.44;;;6.49;100.00
48563;BME280;34981;49.104;11.396;2023-04-02T13:44:21;99627.41;;;6.48;100.00
48563;BME280;34981;49.104;11.396;2023-04-02T13:46:49;99630.38;;;6.45;100.00
48563;BME280;34981;49.104;11.396;2023-04-02T13:49:17;99630.72;;;6.42;100.00
48563;BME280;34981;49.104;11.396;2023-04-02T13:51:45;99617.03;;;6.27;100.00
48563;BME280;34981;49.104;11.396;2023-04-02T13:56:42;99606.03;;;6.12;100.00
48563;BME280;34981;49.104;11.396;2023-04-02T13:59:09;99621.75;;;6.15;100.00
48563;BME280;34981;49.104;11.396;2023-04-02T14:01:37;99611.38;;;6.12;100.00
48563;BME280;34981;49.104;11.396;2023-04-02T14:04:04;99620.53;;;6.10;100.00
48563;BME280;34981;49.104;11.396;2023-04-02T14:06:42;99622.16;;;6.20;100.00
48563;BME280;34981;49.104;11.396;2023-04-02T14:09:24;99614.34;;;6.09;100.00
48563;BME280;34981;49.104;11.396;2023-04-02T14:24:57;99645.13;;;6.13;100.00
48563;BME280;34981;49.104;11.396;2023-04-02T14:30:16;99622.88;;;5.95;100.00
48563;BME280;34981;49.104;11.396;2023-04-02T14:32:53;99620.69;;;5.81;100.00
48563;BME280;34981;49.104;11.396;2023-04-02T14:35:36;99640.09;;;5.83;100.00
48563;BME280;34981;49.104;11.396;2023-04-02T14:38:07;99629.00;;;5.78;100.00
48563;BME280;34981;49.104;11.396;2023-04-02T14:43:10;99633.50;;;5.50;100.00
48563;BME280;34981;49.104;11.396;2023-04-02T14:48:15;99635.78;;;5.45;100.00
48563;BME280;34981;49.104;11.396;2023-04-02T14:50:47;99631.06;;;5.29;100.00
48563;BME280;34981;49.104;11.396;2023-04-02T14:53:25;99635.69;;;5.27;100.00
48563;BME280;34981;49.104;11.396;2023-04-02T14:55:55;99623.66;;;5.14;100.00
48563;BME280;34981;49.104;11.396;2023-04-02T15:00:57;99643.47;;;5.11;100.00
48563;BME280;34981;49.104;11.396;2023-04-02T15:03:27;99648.91;;;5.19;100.00
48563;BME280;34981;49.104;11.396;2023-04-02T15:05:57;99654.94;;;5.21;100.00
48563;BME280;34981;49.104;11.396;2023-04-02T15:11:01;99649.94;;;4.99;100.00
48563;BME280;34981;49.104;11.396;2023-04-02T15:13:36;99637.47;;;4.90;100.00
48563;BME280;34981;49.104;11.396;2023-04-02T15:16:04;99639.88;;;4.83;100.00
48563;BME280;34981;49.104;11.396;2023-04-02T15:18:37;99654.75;;;4.86;100.00
48563;BME280;34981;49.104;11.396;2023-04-02T15:23:37;99658.13;;;4.78;100.00
48563;BME280;34981;49.104;11.396;2023-04-02T15:31:57;99642.28;;;4.77;100.00
48563;BME280;34981;49.104;11.396;2023-04-02T15:34:31;99657.03;;;4.71;100.00
48563;BME280;34981;49.104;11.396;2023-04-02T15:37:04;99663.19;;;4.72;100.00
48563;BME280;34981;49.104;11.396;2023-04-02T15:44:53;99659.69;;;4.71;100.00
48563;BME280;34981;49.104;11.396;2023-04-02T15:47:47;99661.81;;;4.67;100.00
48563;BME280;34981;49.104;11.396;2023-04-02T15:53:32;99653.94;;;4.66;100.00
48563;BME280;34981;49.104;11.396;2023-04-02T15:56:13;99662.50;;;4.60;100.00
48563;BME280;34981;49.104;11.396;2023-04-02T15:58:51;99675.41;;;4.64;100.00
48563;BME280;34981;49.104;11.396;2023-04-02T16:11:29;99692.09;;;4.38;100.00
48563;BME280;34981;49.104;11.396;2023-04-02T16:14:09;99690.13;;;4.30;100.00
48563;BME280;34981;49.104;11.396;2023-04-02T16:16:41;99669.06;;;4.17;100.00
48563;BME280;34981;49.104;11.396;2023-04-02T16:19:15;99690.09;;;4.20;100.00